sensor_id;sensor_type;location;lat;lon;timestamp;P1;durP1;ratioP1;P2;durP2;ratioP2
1731;SDS011;863;52.268;8.834;2022-07-29T00:01:14;1.70;;;1.20;;
1731;SDS011;863;52.268;8.834;2022-07-29T00:03:39;2.50;;;1.10;;
1731;SDS011;863;52.268;8.834;2022-07-29T00:06:04;1.75;;;1.10;;
1731;SDS011;863;52.268;8.834;2022-07-29T00:08:29;2.53;;;1.17;;
1731;SDS011;863;52.268;8.834;2022-07-29T00:10:54;1.45;;;1.17;;
1731;SDS011;863;52.268;8.834;2022-07-29T00:13:20;1.50;;;1.00;;
1731;SDS011;863;52.268;8.834;2022-07-29T00:15:45;4.30;;;1.30;;
1731;SDS011;863;52.268;8.834;2022-07-29T00:18:10;4.50;;;1.25;;
1731;SDS011;863;52.268;8.834;2022-07-29T00:20:35;1.63;;;1.02;;
1731;SDS011;863;52.268;8.834;2022-07-29T00:23:00;2.20;;;1.00;;
1731;SDS011;863;52.268;8.834;2022-07-29T00:25:25;1.50;;;0.93;;
1731;SDS011;863;52.268;8.834;2022-07-29T00:27:51;3.23;;;1.00;;
1731;SDS011;863;52.268;8.834;2022-07-29T00:30:16;1.47;;;1.10;;
1731;SDS011;863;52.268;8.834;2022-07-29T00:32:41;1.43;;;0.97;;
1731;SDS011;863;52.268;8.834;2022-07-29T00:35:06;2.57;;;1.00;;
1731;SDS011;863;52.268;8.834;2022-07-29T00:37:51;2.10;;;1.03;;
1731;SDS011;863;52.268;8.834;2022-07-29T00:40:16;1.90;;;1.17;;
1731;SDS011;863;52.268;8.834;2022-07-29T00:42:44;1.80;;;0.90;;
1731;SDS011;863;52.268;8.834;2022-07-29T00:45:10;3.07;;;1.03;;
1731;SDS011;863;52.268;8.834;2022-07-29T00:47:36;1.40;;;1.10;;
1731;SDS011;863;52.268;8.834;2022-07-29T00:50:01;1.40;;;0.90;;
1731;SDS011;863;52.268;8.834;2022-07-29T00:52:26;1.47;;;1.17;;
1731;SDS011;863;52.268;8.834;2022-07-29T00:54:51;2.47;;;1.10;;
1731;SDS011;863;52.268;8.834;2022-07-29T00:57:17;2.47;;;1.50;;
1731;SDS011;863;52.268;8.834;2022-07-29T00:59:42;1.90;;;0.80;;
1731;SDS011;863;52.268;8.834;2022-07-29T01:02:07;1.87;;;0.90;;
1731;SDS011;863;52.268;8.834;2022-07-29T01:04:32;1.65;;;1.13;;
1731;SDS011;863;52.268;8.834;2022-07-29T01:06:58;1.57;;;1.03;;
1731;SDS011;863;52.268;8.834;2022-07-29T01:09:24;1.97;;;1.17;;
1731;SDS011;863;52.268;8.834;2022-07-29T01:11:49;2.20;;;1.30;;
1731;SDS011;863;52.268;8.834;2022-07-29T01:14:15;1.43;;;0.77;;
1731;SDS011;863;52.268;8.834;2022-07-29T01:16:50;1.40;;;0.90;;
1731;SDS011;863;52.268;8.834;2022-07-29T01:21:57;2.30;;;1.20;;
1731;SDS011;863;52.268;8.834;2022-07-29T01:24:42;2.30;;;1.00;;
1731;SDS011;863;52.268;8.834;2022-07-29T01:27:17;2.30;;;1.03;;
1731;SDS011;863;52.268;8.834;2022-07-29T01:29:49;2.63;;;1.10;;
1731;SDS011;863;52.268;8.834;2022-07-29T01:32:21;2.30;;;1.20;;
1731;SDS011;863;52.268;8.834;2022-07-29T01:35:02;2.57;;;0.93;;
1731;SDS011;863;52.268;8.834;2022-07-29T01:37:29;1.63;;;0.90;;
1731;SDS011;863;52.268;8.834;2022-07-29T01:39:57;2.30;;;1.00;;
1731;SDS011;863;52.268;8.834;2022-07-29T01:42:26;1.70;;;1.00;;
1731;SDS011;863;52.268;8.834;2022-07-29T01:45:00;3.00;;;1.10;;
1731;SDS011;863;52.268;8.834;2022-07-29T01:47:40;2.30;;;1.00;;
1731;SDS011;863;52.268;8.834;2022-07-29T01:50:07;1.60;;;1.20;;
1731;SDS011;863;52.268;8.834;2022-07-29T01:52:37;1.93;;;0.80;;
1731;SDS011;863;52.268;8.834;2022-07-29T01:55:06;2.70;;;1.00;;
1731;SDS011;863;52.268;8.834;2022-07-29T01:57:33;3.87;;;0.90;;
1731;SDS011;863;52.268;8.834;2022-07-29T02:00:00;2.60;;;0.90;;
1731;SDS011;863;52.268;8.834;2022-07-29T02:02:26;2.20;;;1.27;;
1731;SDS011;863;52.268;8.834;2022-07-29T02:04:52;2.47;;;0.87;;
1731;SDS011;863;52.268;8.834;2022-07-29T02:07:19;2.70;;;1.00;;
1731;SDS011;863;52.268;8.834;2022-07-29T02:09:44;1.73;;;1.00;;
1731;SDS011;863;52.268;8.834;2022-07-29T02:12:10;2.40;;;0.90;;
1731;SDS011;863;52.268;8.834;2022-07-29T02:14:37;2.53;;;1.07;;
1731;SDS011;863;52.268;8.834;2022-07-29T02:17:03;1.40;;;0.77;;
1731;SDS011;863;52.268;8.834;2022-07-29T02:19:29;1.40;;;0.87;;
1731;SDS011;863;52.268;8.834;2022-07-29T02:21:55;2.40;;;1.13;;
1731;SDS011;863;52.268;8.834;2022-07-29T02:24:22;2.03;;;1.33;;
1731;SDS011;863;52.268;8.834;2022-07-29T02:26:48;2.00;;;1.07;;
1731;SDS011;863;52.268;8.834;2022-07-29T02:29:14;1.43;;;0.90;;
1731;SDS011;863;52.268;8.834;2022-07-29T02:31:40;2.23;;;0.90;;
1731;SDS011;863;52.268;8.834;2022-07-29T02:34:08;1.80;;;1.00;;
1731;SDS011;863;52.268;8.834;2022-07-29T02:36:33;1.80;;;1.10;;
1731;SDS011;863;52.268;8.834;2022-07-29T02:38:59;1.73;;;1.00;;
1731;SDS011;863;52.268;8.834;2022-07-29T02:44:09;2.63;;;0.90;;
1731;SDS011;863;52.268;8.834;2022-07-29T02:46:35;1.60;;;1.03;;
1731;SDS011;863;52.268;8.834;2022-07-29T02:49:07;1.90;;;0.90;;
1731;SDS011;863;52.268;8.834;2022-07-29T02:51:39;2.40;;;1.20;;
1731;SDS011;863;52.268;8.834;2022-07-29T02:54:06;1.60;;;1.00;;
1731;SDS011;863;52.268;8.834;2022-07-29T02:56:32;3.50;;;1.30;;
1731;SDS011;863;52.268;8.834;2022-07-29T02:59:01;3.87;;;1.20;;
1731;SDS011;863;52.268;8.834;2022-07-29T03:01:29;1.50;;;0.80;;
1731;SDS011;863;52.268;8.834;2022-07-29T03:03:55;3.10;;;1.00;;
1731;SDS011;863;52.268;8.834;2022-07-29T03:06:21;2.07;;;1.17;;
1731;SDS011;863;52.268;8.834;2022-07-29T03:08:47;1.63;;;0.83;;
1731;SDS011;863;52.268;8.834;2022-07-29T03:11:12;2.70;;;1.33;;
1731;SDS011;863;52.268;8.834;2022-07-29T03:13:38;1.50;;;0.93;;
1731;SDS011;863;52.268;8.834;2022-07-29T03:16:04;1.60;;;0.80;;
1731;SDS011;863;52.268;8.834;2022-07-29T03:18:30;1.33;;;0.87;;
1731;SDS011;863;52.268;8.834;2022-07-29T03:20:55;1.60;;;1.10;;
1731;SDS011;863;52.268;8.834;2022-07-29T03:23:21;1.70;;;0.97;;
1731;SDS011;863;52.268;8.834;2022-07-29T03:25:47;1.60;;;0.90;;
1731;SDS011;863;52.268;8.834;2022-07-29T03:28:13;2.07;;;0.90;;
1731;SDS011;863;52.268;8.834;2022-07-29T03:30:38;1.57;;;1.03;;
1731;SDS011;863;52.268;8.834;2022-07-29T03:33:03;4.43;;;1.10;;
1731;SDS011;863;52.268;8.834;2022-07-29T03:35:28;2.10;;;1.13;;
1731;SDS011;863;52.268;8.834;2022-07-29T03:37:56;2.40;;;0.97;;
1731;SDS011;863;52.268;8.834;2022-07-29T03:40:22;2.80;;;1.10;;
1731;SDS011;863;52.268;8.834;2022-07-29T03:42:49;1.63;;;0.87;;
1731;SDS011;863;52.268;8.834;2022-07-29T03:45:15;2.37;;;1.10;;
1731;SDS011;863;52.268;8.834;2022-07-29T03:47:43;2.20;;;1.00;;
1731;SDS011;863;52.268;8.834;2022-07-29T03:50:10;2.07;;;1.20;;
1731;SDS011;863;52.268;8.834;2022-07-29T03:52:36;4.00;;;1.20;;
1731;SDS011;863;52.268;8.834;2022-07-29T03:55:02;2.37;;;1.07;;
1731;SDS011;863;52.268;8.834;2022-07-29T03:57:28;2.70;;;1.13;;
1731;SDS011;863;52.268;8.834;2022-07-29T03:59:53;2.10;;;1.50;;
1731;SDS011;863;52.268;8.834;2022-07-29T04:02:19;3.50;;;1.70;;
1731;SDS011;863;52.268;8.834;2022-07-29T04:04:44;3.30;;;1.50;;
1731;SDS011;863;52.268;8.834;2022-07-29T04:07:13;2.37;;;1.30;;
1731;SDS011;863;52.268;8.834;2022-07-29T04:09:39;3.17;;;1.57;;
1731;SDS011;863;52.268;8.834;2022-07-29T04:12:04;2.73;;;1.50;;
1731;SDS011;863;52.268;8.834;2022-07-29T04:14:30;3.60;;;1.50;;
1731;SDS011;863;52.268;8.834;2022-07-29T04:16:55;5.43;;;1.73;;
1731;SDS011;863;52.268;8.834;2022-07-29T04:19:20;2.20;;;1.50;;
1731;SDS011;863;52.268;8.834;2022-07-29T04:21:46;3.20;;;1.90;;
1731;SDS011;863;52.268;8.834;2022-07-29T04:24:11;2.83;;;2.00;;
1731;SDS011;863;52.268;8.834;2022-07-29T04:26:36;2.83;;;1.90;;
1731;SDS011;863;52.268;8.834;2022-07-29T04:29:01;5.73;;;2.33;;
1731;SDS011;863;52.268;8.834;2022-07-29T04:31:26;2.67;;;2.08;;
1731;SDS011;863;52.268;8.834;2022-07-29T04:33:51;3.20;;;1.50;;
1731;SDS011;863;52.268;8.834;2022-07-29T04:36:17;2.60;;;1.53;;
1731;SDS011;863;52.268;8.834;2022-07-29T04:38:42;2.22;;;1.50;;
1731;SDS011;863;52.268;8.834;2022-07-29T04:41:07;3.83;;;1.98;;
1731;SDS011;863;52.268;8.834;2022-07-29T04:43:33;3.93;;;1.60;;
1731;SDS011;863;52.268;8.834;2022-07-29T04:45:58;2.40;;;1.50;;
1731;SDS011;863;52.268;8.834;2022-07-29T04:48:24;2.07;;;1.50;;
1731;SDS011;863;52.268;8.834;2022-07-29T04:50:49;3.87;;;2.03;;
1731;SDS011;863;52.268;8.834;2022-07-29T04:53:14;2.00;;;1.30;;
1731;SDS011;863;52.268;8.834;2022-07-29T04:55:40;3.60;;;1.30;;
1731;SDS011;863;52.268;8.834;2022-07-29T04:58:05;2.45;;;1.23;;
1731;SDS011;863;52.268;8.834;2022-07-29T05:00:31;1.87;;;1.10;;
1731;SDS011;863;52.268;8.834;2022-07-29T05:02:56;1.87;;;1.27;;
1731;SDS011;863;52.268;8.834;2022-07-29T05:05:21;1.90;;;1.30;;
1731;SDS011;863;52.268;8.834;2022-07-29T05:07:46;2.60;;;1.10;;
1731;SDS011;863;52.268;8.834;2022-07-29T05:10:11;1.58;;;1.17;;
1731;SDS011;863;52.268;8.834;2022-07-29T05:12:37;2.20;;;1.10;;
1731;SDS011;863;52.268;8.834;2022-07-29T05:15:02;2.83;;;1.47;;
1731;SDS011;863;52.268;8.834;2022-07-29T05:17:27;4.03;;;1.50;;
1731;SDS011;863;52.268;8.834;2022-07-29T05:19:52;2.37;;;1.00;;
1731;SDS011;863;52.268;8.834;2022-07-29T05:22:18;1.70;;;1.00;;
1731;SDS011;863;52.268;8.834;2022-07-29T05:24:44;2.70;;;1.17;;
1731;SDS011;863;52.268;8.834;2022-07-29T05:27:09;1.93;;;1.07;;
1731;SDS011;863;52.268;8.834;2022-07-29T05:29:34;3.80;;;1.20;;
1731;SDS011;863;52.268;8.834;2022-07-29T05:32:00;2.60;;;1.40;;
1731;SDS011;863;52.268;8.834;2022-07-29T05:34:25;2.50;;;1.27;;
1731;SDS011;863;52.268;8.834;2022-07-29T05:36:50;3.53;;;1.50;;
1731;SDS011;863;52.268;8.834;2022-07-29T05:39:15;2.20;;;1.17;;
1731;SDS011;863;52.268;8.834;2022-07-29T05:41:41;1.57;;;1.07;;
1731;SDS011;863;52.268;8.834;2022-07-29T05:44:06;2.50;;;0.90;;
1731;SDS011;863;52.268;8.834;2022-07-29T05:46:31;2.50;;;1.40;;
1731;SDS011;863;52.268;8.834;2022-07-29T05:48:56;2.42;;;1.10;;
1731;SDS011;863;52.268;8.834;2022-07-29T05:51:21;2.03;;;1.10;;
1731;SDS011;863;52.268;8.834;2022-07-29T05:53:47;2.30;;;1.60;;
1731;SDS011;863;52.268;8.834;2022-07-29T05:56:12;2.43;;;1.53;;
1731;SDS011;863;52.268;8.834;2022-07-29T05:58:37;1.92;;;1.30;;
1731;SDS011;863;52.268;8.834;2022-07-29T06:01:02;3.40;;;1.87;;
1731;SDS011;863;52.268;8.834;2022-07-29T06:03:28;2.20;;;0.90;;
1731;SDS011;863;52.268;8.834;2022-07-29T06:05:53;4.80;;;1.43;;
1731;SDS011;863;52.268;8.834;2022-07-29T06:08:19;2.40;;;1.27;;
1731;SDS011;863;52.268;8.834;2022-07-29T06:10:44;1.60;;;1.17;;
1731;SDS011;863;52.268;8.834;2022-07-29T06:13:10;1.80;;;1.07;;
1731;SDS011;863;52.268;8.834;2022-07-29T06:15:35;1.60;;;1.00;;
1731;SDS011;863;52.268;8.834;2022-07-29T06:18:00;2.33;;;1.13;;
1731;SDS011;863;52.268;8.834;2022-07-29T06:20:26;2.90;;;1.20;;
1731;SDS011;863;52.268;8.834;2022-07-29T06:22:54;1.70;;;1.20;;
1731;SDS011;863;52.268;8.834;2022-07-29T06:25:19;1.80;;;1.20;;
1731;SDS011;863;52.268;8.834;2022-07-29T06:27:44;2.77;;;1.20;;
1731;SDS011;863;52.268;8.834;2022-07-29T06:30:10;2.33;;;0.90;;
1731;SDS011;863;52.268;8.834;2022-07-29T06:32:35;2.40;;;1.20;;
1731;SDS011;863;52.268;8.834;2022-07-29T06:35:00;1.70;;;1.00;;
1731;SDS011;863;52.268;8.834;2022-07-29T06:37:25;2.40;;;1.00;;
1731;SDS011;863;52.268;8.834;2022-07-29T06:39:51;2.27;;;1.10;;
1731;SDS011;863;52.268;8.834;2022-07-29T06:42:36;3.37;;;1.30;;
1731;SDS011;863;52.268;8.834;2022-07-29T06:45:01;3.97;;;1.38;;
1731;SDS011;863;52.268;8.834;2022-07-29T06:47:26;2.67;;;1.27;;
1731;SDS011;863;52.268;8.834;2022-07-29T06:49:51;4.82;;;1.50;;
1731;SDS011;863;52.268;8.834;2022-07-29T06:52:16;2.97;;;1.20;;
1731;SDS011;863;52.268;8.834;2022-07-29T06:54:41;1.98;;;1.20;;
1731;SDS011;863;52.268;8.834;2022-07-29T06:57:12;2.60;;;1.07;;
1731;SDS011;863;52.268;8.834;2022-07-29T06:59:37;2.03;;;1.13;;
1731;SDS011;863;52.268;8.834;2022-07-29T07:02:03;2.13;;;1.10;;
1731;SDS011;863;52.268;8.834;2022-07-29T07:04:28;2.27;;;1.23;;
1731;SDS011;863;52.268;8.834;2022-07-29T07:06:53;3.80;;;1.50;;
1731;SDS011;863;52.268;8.834;2022-07-29T07:09:20;1.80;;;0.73;;
1731;SDS011;863;52.268;8.834;2022-07-29T07:11:45;2.63;;;1.40;;
1731;SDS011;863;52.268;8.834;2022-07-29T07:14:10;2.67;;;1.13;;
1731;SDS011;863;52.268;8.834;2022-07-29T07:16:35;1.70;;;1.10;;
1731;SDS011;863;52.268;8.834;2022-07-29T07:19:01;3.80;;;1.20;;
1731;SDS011;863;52.268;8.834;2022-07-29T07:21:26;1.77;;;1.00;;
1731;SDS011;863;52.268;8.834;2022-07-29T07:23:51;1.40;;;1.00;;
1731;SDS011;863;52.268;8.834;2022-07-29T07:26:16;2.63;;;1.20;;
1731;SDS011;863;52.268;8.834;2022-07-29T07:28:41;2.63;;;1.20;;
1731;SDS011;863;52.268;8.834;2022-07-29T07:31:06;2.27;;;1.50;;
1731;SDS011;863;52.268;8.834;2022-07-29T07:33:32;2.13;;;1.30;;
1731;SDS011;863;52.268;8.834;2022-07-29T07:35:57;2.53;;;1.17;;
1731;SDS011;863;52.268;8.834;2022-07-29T07:38:22;2.80;;;1.30;;
1731;SDS011;863;52.268;8.834;2022-07-29T07:40:47;2.92;;;1.17;;
1731;SDS011;863;52.268;8.834;2022-07-29T07:43:12;2.38;;;1.25;;
1731;SDS011;863;52.268;8.834;2022-07-29T07:45:38;2.60;;;1.10;;
1731;SDS011;863;52.268;8.834;2022-07-29T07:48:04;5.90;;;1.20;;
1731;SDS011;863;52.268;8.834;2022-07-29T07:50:29;4.50;;;1.30;;
1731;SDS011;863;52.268;8.834;2022-07-29T07:52:55;2.03;;;1.33;;
1731;SDS011;863;52.268;8.834;2022-07-29T07:55:22;1.60;;;0.80;;
1731;SDS011;863;52.268;8.834;2022-07-29T07:57:48;1.57;;;0.90;;
1731;SDS011;863;52.268;8.834;2022-07-29T08:00:13;2.80;;;1.30;;
1731;SDS011;863;52.268;8.834;2022-07-29T08:02:39;2.17;;;1.00;;
1731;SDS011;863;52.268;8.834;2022-07-29T08:05:05;2.20;;;1.10;;
1731;SDS011;863;52.268;8.834;2022-07-29T08:07:30;2.37;;;1.07;;
1731;SDS011;863;52.268;8.834;2022-07-29T08:09:56;2.43;;;1.03;;
1731;SDS011;863;52.268;8.834;2022-07-29T08:12:21;2.28;;;1.10;;
1731;SDS011;863;52.268;8.834;2022-07-29T08:14:46;2.03;;;0.97;;
1731;SDS011;863;52.268;8.834;2022-07-29T08:17:12;1.97;;;1.33;;
1731;SDS011;863;52.268;8.834;2022-07-29T08:19:37;3.67;;;1.40;;
1731;SDS011;863;52.268;8.834;2022-07-29T08:22:03;1.97;;;1.20;;
1731;SDS011;863;52.268;8.834;2022-07-29T08:24:28;2.10;;;1.03;;
1731;SDS011;863;52.268;8.834;2022-07-29T08:27:09;2.20;;;1.03;;
1731;SDS011;863;52.268;8.834;2022-07-29T08:29:35;2.00;;;1.10;;
1731;SDS011;863;52.268;8.834;2022-07-29T08:32:00;2.30;;;1.10;;
1731;SDS011;863;52.268;8.834;2022-07-29T08:34:26;4.50;;;1.00;;
1731;SDS011;863;52.268;8.834;2022-07-29T08:36:51;11.63;;;1.60;;
1731;SDS011;863;52.268;8.834;2022-07-29T08:39:16;2.53;;;0.97;;
1731;SDS011;863;52.268;8.834;2022-07-29T08:41:42;3.17;;;1.70;;
1731;SDS011;863;52.268;8.834;2022-07-29T08:44:07;3.40;;;1.30;;
1731;SDS011;863;52.268;8.834;2022-07-29T08:46:32;2.13;;;0.93;;
1731;SDS011;863;52.268;8.834;2022-07-29T08:48:58;1.70;;;1.00;;
1731;SDS011;863;52.268;8.834;2022-07-29T08:51:23;4.68;;;1.15;;
1731;SDS011;863;52.268;8.834;2022-07-29T08:53:50;2.40;;;0.90;;
1731;SDS011;863;52.268;8.834;2022-07-29T08:56:16;1.77;;;1.00;;
1731;SDS011;863;52.268;8.834;2022-07-29T08:58:42;2.67;;;1.00;;
1731;SDS011;863;52.268;8.834;2022-07-29T09:01:07;4.30;;;1.40;;
1731;SDS011;863;52.268;8.834;2022-07-29T09:03:34;2.20;;;1.10;;
1731;SDS011;863;52.268;8.834;2022-07-29T09:06:01;2.50;;;1.10;;
1731;SDS011;863;52.268;8.834;2022-07-29T09:08:26;1.70;;;0.90;;
1731;SDS011;863;52.268;8.834;2022-07-29T09:10:52;2.37;;;0.90;;
1731;SDS011;863;52.268;8.834;2022-07-29T09:13:18;2.17;;;1.17;;
1731;SDS011;863;52.268;8.834;2022-07-29T09:15:43;1.88;;;1.08;;
1731;SDS011;863;52.268;8.834;2022-07-29T09:18:09;2.07;;;0.80;;
1731;SDS011;863;52.268;8.834;2022-07-29T09:20:34;3.13;;;1.10;;
1731;SDS011;863;52.268;8.834;2022-07-29T09:23:18;2.90;;;1.20;;
1731;SDS011;863;52.268;8.834;2022-07-29T09:25:43;1.83;;;1.07;;
1731;SDS011;863;52.268;8.834;2022-07-29T09:28:12;2.57;;;1.03;;
1731;SDS011;863;52.268;8.834;2022-07-29T09:30:51;2.40;;;1.20;;
1731;SDS011;863;52.268;8.834;2022-07-29T09:33:17;2.50;;;1.10;;
1731;SDS011;863;52.268;8.834;2022-07-29T09:35:42;2.07;;;0.70;;
1731;SDS011;863;52.268;8.834;2022-07-29T09:38:11;2.47;;;1.00;;
1731;SDS011;863;52.268;8.834;2022-07-29T09:40:37;1.90;;;1.10;;
1731;SDS011;863;52.268;8.834;2022-07-29T09:43:09;4.17;;;1.30;;
1731;SDS011;863;52.268;8.834;2022-07-29T09:45:35;2.13;;;1.00;;
1731;SDS011;863;52.268;8.834;2022-07-29T09:48:14;2.20;;;1.40;;
1731;SDS011;863;52.268;8.834;2022-07-29T09:50:40;2.57;;;1.17;;
1731;SDS011;863;52.268;8.834;2022-07-29T09:53:06;1.73;;;1.00;;
1731;SDS011;863;52.268;8.834;2022-07-29T09:55:31;1.87;;;1.13;;
1731;SDS011;863;52.268;8.834;2022-07-29T09:58:15;5.03;;;1.50;;
1731;SDS011;863;52.268;8.834;2022-07-29T10:00:42;4.97;;;1.30;;
1731;SDS011;863;52.268;8.834;2022-07-29T10:03:07;3.23;;;1.20;;
1731;SDS011;863;52.268;8.834;2022-07-29T10:05:32;2.60;;;0.97;;
1731;SDS011;863;52.268;8.834;2022-07-29T10:07:57;3.63;;;1.20;;
1731;SDS011;863;52.268;8.834;2022-07-29T10:12:54;2.70;;;1.03;;
1731;SDS011;863;52.268;8.834;2022-07-29T10:15:20;3.00;;;1.30;;
1731;SDS011;863;52.268;8.834;2022-07-29T10:17:46;2.33;;;1.07;;
1731;SDS011;863;52.268;8.834;2022-07-29T10:20:11;3.33;;;1.37;;
1731;SDS011;863;52.268;8.834;2022-07-29T10:22:36;1.93;;;0.90;;
1731;SDS011;863;52.268;8.834;2022-07-29T10:25:02;2.23;;;1.10;;
1731;SDS011;863;52.268;8.834;2022-07-29T10:27:27;1.70;;;1.00;;
1731;SDS011;863;52.268;8.834;2022-07-29T10:29:53;2.37;;;1.13;;
1731;SDS011;863;52.268;8.834;2022-07-29T10:32:28;2.30;;;1.00;;
1731;SDS011;863;52.268;8.834;2022-07-29T10:35:17;4.30;;;1.50;;
1731;SDS011;863;52.268;8.834;2022-07-29T10:40:43;2.43;;;1.10;;
1731;SDS011;863;52.268;8.834;2022-07-29T10:43:29;3.90;;;1.33;;
1731;SDS011;863;52.268;8.834;2022-07-29T10:45:55;3.20;;;1.50;;
1731;SDS011;863;52.268;8.834;2022-07-29T10:48:21;3.00;;;1.07;;
1731;SDS011;863;52.268;8.834;2022-07-29T10:50:55;2.17;;;1.00;;
1731;SDS011;863;52.268;8.834;2022-07-29T10:53:21;3.93;;;1.20;;
1731;SDS011;863;52.268;8.834;2022-07-29T10:55:46;2.00;;;1.40;;
1731;SDS011;863;52.268;8.834;2022-07-29T10:58:17;2.10;;;1.33;;
1731;SDS011;863;52.268;8.834;2022-07-29T11:00:42;3.60;;;1.10;;
1731;SDS011;863;52.268;8.834;2022-07-29T11:03:08;2.30;;;1.10;;
1731;SDS011;863;52.268;8.834;2022-07-29T11:05:55;2.73;;;1.27;;
1731;SDS011;863;52.268;8.834;2022-07-29T11:08:21;2.53;;;1.33;;
1731;SDS011;863;52.268;8.834;2022-07-29T11:10:48;2.70;;;1.00;;
1731;SDS011;863;52.268;8.834;2022-07-29T11:15:58;2.83;;;1.10;;
1731;SDS011;863;52.268;8.834;2022-07-29T11:18:23;2.67;;;1.20;;
1731;SDS011;863;52.268;8.834;2022-07-29T11:20:49;2.10;;;1.20;;
1731;SDS011;863;52.268;8.834;2022-07-29T11:23:25;2.30;;;1.30;;
1731;SDS011;863;52.268;8.834;2022-07-29T11:28:36;2.30;;;1.10;;
1731;SDS011;863;52.268;8.834;2022-07-29T11:31:04;2.80;;;1.23;;
1731;SDS011;863;52.268;8.834;2022-07-29T11:33:30;2.50;;;1.43;;
1731;SDS011;863;52.268;8.834;2022-07-29T11:36:09;2.30;;;1.27;;
1731;SDS011;863;52.268;8.834;2022-07-29T11:38:35;2.37;;;1.20;;
1731;SDS011;863;52.268;8.834;2022-07-29T11:43:47;2.10;;;1.30;;
1731;SDS011;863;52.268;8.834;2022-07-29T11:46:12;4.03;;;1.10;;
1731;SDS011;863;52.268;8.834;2022-07-29T11:48:41;2.47;;;1.20;;
1731;SDS011;863;52.268;8.834;2022-07-29T11:51:08;3.13;;;1.30;;
1731;SDS011;863;52.268;8.834;2022-07-29T11:53:34;2.60;;;1.37;;
1731;SDS011;863;52.268;8.834;2022-07-29T11:56:00;1.70;;;1.03;;
1731;SDS011;863;52.268;8.834;2022-07-29T11:58:26;2.87;;;1.10;;
1731;SDS011;863;52.268;8.834;2022-07-29T12:00:52;2.50;;;1.17;;
1731;SDS011;863;52.268;8.834;2022-07-29T12:03:23;2.00;;;1.23;;
1731;SDS011;863;52.268;8.834;2022-07-29T12:05:48;3.30;;;1.00;;
1731;SDS011;863;52.268;8.834;2022-07-29T12:08:15;2.00;;;1.20;;
1731;SDS011;863;52.268;8.834;2022-07-29T12:10:43;1.77;;;1.20;;
1731;SDS011;863;52.268;8.834;2022-07-29T12:13:08;2.23;;;1.23;;
1731;SDS011;863;52.268;8.834;2022-07-29T12:15:34;2.10;;;0.90;;
1731;SDS011;863;52.268;8.834;2022-07-29T12:18:08;3.63;;;1.20;;
1731;SDS011;863;52.268;8.834;2022-07-29T12:20:33;3.00;;;1.40;;
1731;SDS011;863;52.268;8.834;2022-07-29T12:23:04;2.40;;;1.37;;
1731;SDS011;863;52.268;8.834;2022-07-29T12:25:32;2.53;;;1.20;;
1731;SDS011;863;52.268;8.834;2022-07-29T12:28:02;2.20;;;1.20;;
1731;SDS011;863;52.268;8.834;2022-07-29T12:30:34;2.40;;;1.20;;
1731;SDS011;863;52.268;8.834;2022-07-29T12:33:00;2.43;;;1.23;;
1731;SDS011;863;52.268;8.834;2022-07-29T12:35:25;2.80;;;1.40;;
1731;SDS011;863;52.268;8.834;2022-07-29T12:37:50;2.17;;;1.33;;
1731;SDS011;863;52.268;8.834;2022-07-29T12:40:17;3.40;;;1.20;;
1731;SDS011;863;52.268;8.834;2022-07-29T12:45:29;3.10;;;1.33;;
1731;SDS011;863;52.268;8.834;2022-07-29T12:47:54;3.60;;;1.30;;
1731;SDS011;863;52.268;8.834;2022-07-29T12:50:20;4.13;;;1.13;;
1731;SDS011;863;52.268;8.834;2022-07-29T12:52:45;3.40;;;1.20;;
1731;SDS011;863;52.268;8.834;2022-07-29T12:55:10;3.30;;;1.33;;
1731;SDS011;863;52.268;8.834;2022-07-29T12:57:49;2.83;;;1.70;;
1731;SDS011;863;52.268;8.834;2022-07-29T13:00:16;2.67;;;1.50;;
1731;SDS011;863;52.268;8.834;2022-07-29T13:02:41;1.77;;;1.10;;
1731;SDS011;863;52.268;8.834;2022-07-29T13:05:07;5.10;;;1.70;;
1731;SDS011;863;52.268;8.834;2022-07-29T13:07:33;3.53;;;1.50;;
1731;SDS011;863;52.268;8.834;2022-07-29T13:10:21;2.17;;;1.50;;
1731;SDS011;863;52.268;8.834;2022-07-29T13:15:30;2.80;;;1.50;;
1731;SDS011;863;52.268;8.834;2022-07-29T13:17:55;3.13;;;1.27;;
1731;SDS011;863;52.268;8.834;2022-07-29T13:20:23;4.80;;;2.53;;
1731;SDS011;863;52.268;8.834;2022-07-29T13:22:49;3.13;;;1.40;;
1731;SDS011;863;52.268;8.834;2022-07-29T13:25:15;3.10;;;2.10;;
1731;SDS011;863;52.268;8.834;2022-07-29T13:27:48;5.07;;;1.50;;
1731;SDS011;863;52.268;8.834;2022-07-29T13:30:13;2.40;;;1.40;;
1731;SDS011;863;52.268;8.834;2022-07-29T13:32:38;1.87;;;1.37;;
1731;SDS011;863;52.268;8.834;2022-07-29T13:35:04;4.43;;;1.80;;
1731;SDS011;863;52.268;8.834;2022-07-29T13:37:30;2.00;;;1.20;;
1731;SDS011;863;52.268;8.834;2022-07-29T13:39:57;2.17;;;1.30;;
1731;SDS011;863;52.268;8.834;2022-07-29T13:42:24;2.63;;;1.37;;
1731;SDS011;863;52.268;8.834;2022-07-29T13:44:49;2.77;;;1.67;;
1731;SDS011;863;52.268;8.834;2022-07-29T13:47:16;4.03;;;2.30;;
1731;SDS011;863;52.268;8.834;2022-07-29T13:49:41;2.13;;;1.40;;
1731;SDS011;863;52.268;8.834;2022-07-29T13:52:06;2.53;;;1.33;;
1731;SDS011;863;52.268;8.834;2022-07-29T13:54:32;3.33;;;1.63;;
1731;SDS011;863;52.268;8.834;2022-07-29T13:56:57;3.30;;;1.40;;
1731;SDS011;863;52.268;8.834;2022-07-29T13:59:22;2.33;;;1.50;;
1731;SDS011;863;52.268;8.834;2022-07-29T14:01:47;3.25;;;1.52;;
1731;SDS011;863;52.268;8.834;2022-07-29T14:04:12;3.10;;;1.40;;
1731;SDS011;863;52.268;8.834;2022-07-29T14:06:38;3.10;;;1.40;;
1731;SDS011;863;52.268;8.834;2022-07-29T14:09:03;4.93;;;1.55;;
1731;SDS011;863;52.268;8.834;2022-07-29T14:11:31;2.87;;;1.80;;
1731;SDS011;863;52.268;8.834;2022-07-29T14:13:56;3.13;;;1.70;;
1731;SDS011;863;52.268;8.834;2022-07-29T14:16:21;8.15;;;2.00;;
1731;SDS011;863;52.268;8.834;2022-07-29T14:18:46;3.95;;;1.73;;
1731;SDS011;863;52.268;8.834;2022-07-29T14:21:11;3.60;;;1.50;;
1731;SDS011;863;52.268;8.834;2022-07-29T14:23:37;2.43;;;1.80;;
1731;SDS011;863;52.268;8.834;2022-07-29T14:26:02;4.20;;;1.70;;
1731;SDS011;863;52.268;8.834;2022-07-29T14:28:28;3.23;;;1.80;;
1731;SDS011;863;52.268;8.834;2022-07-29T14:30:53;3.57;;;1.60;;
1731;SDS011;863;52.268;8.834;2022-07-29T14:33:18;2.30;;;1.45;;
1731;SDS011;863;52.268;8.834;2022-07-29T14:35:44;3.50;;;1.90;;
1731;SDS011;863;52.268;8.834;2022-07-29T14:38:09;3.63;;;1.93;;
1731;SDS011;863;52.268;8.834;2022-07-29T14:40:35;4.37;;;1.93;;
1731;SDS011;863;52.268;8.834;2022-07-29T14:43:01;2.50;;;1.90;;
1731;SDS011;863;52.268;8.834;2022-07-29T14:45:26;3.50;;;1.70;;
1731;SDS011;863;52.268;8.834;2022-07-29T14:47:53;5.00;;;1.80;;
1731;SDS011;863;52.268;8.834;2022-07-29T14:50:18;2.37;;;1.60;;
1731;SDS011;863;52.268;8.834;2022-07-29T14:52:44;2.63;;;1.50;;
1731;SDS011;863;52.268;8.834;2022-07-29T14:55:09;1.80;;;1.30;;
1731;SDS011;863;52.268;8.834;2022-07-29T14:57:34;2.20;;;1.50;;
1731;SDS011;863;52.268;8.834;2022-07-29T15:00:00;2.33;;;1.60;;
1731;SDS011;863;52.268;8.834;2022-07-29T15:02:25;3.40;;;1.60;;
1731;SDS011;863;52.268;8.834;2022-07-29T15:04:50;2.70;;;1.80;;
1731;SDS011;863;52.268;8.834;2022-07-29T15:07:16;3.27;;;1.60;;
1731;SDS011;863;52.268;8.834;2022-07-29T15:09:41;2.93;;;1.60;;
1731;SDS011;863;52.268;8.834;2022-07-29T15:12:07;4.10;;;1.60;;
1731;SDS011;863;52.268;8.834;2022-07-29T15:14:33;3.10;;;1.63;;
1731;SDS011;863;52.268;8.834;2022-07-29T15:16:58;2.87;;;1.57;;
1731;SDS011;863;52.268;8.834;2022-07-29T15:19:23;3.60;;;1.87;;
1731;SDS011;863;52.268;8.834;2022-07-29T15:21:49;2.90;;;2.07;;
1731;SDS011;863;52.268;8.834;2022-07-29T15:24:16;4.37;;;2.03;;
1731;SDS011;863;52.268;8.834;2022-07-29T15:26:42;4.63;;;2.33;;
1731;SDS011;863;52.268;8.834;2022-07-29T15:29:08;2.50;;;1.90;;
1731;SDS011;863;52.268;8.834;2022-07-29T15:31:33;3.03;;;2.00;;
1731;SDS011;863;52.268;8.834;2022-07-29T15:33:59;2.73;;;2.20;;
1731;SDS011;863;52.268;8.834;2022-07-29T15:36:24;4.93;;;2.23;;
1731;SDS011;863;52.268;8.834;2022-07-29T15:38:51;2.90;;;2.00;;
1731;SDS011;863;52.268;8.834;2022-07-29T15:41:18;2.77;;;1.60;;
1731;SDS011;863;52.268;8.834;2022-07-29T15:43:43;5.55;;;2.15;;
1731;SDS011;863;52.268;8.834;2022-07-29T15:46:09;3.87;;;1.60;;
1731;SDS011;863;52.268;8.834;2022-07-29T15:48:55;5.53;;;1.70;;
1731;SDS011;863;52.268;8.834;2022-07-29T15:51:21;3.00;;;1.63;;